sensor_id;sensor_type;location;lat;lon;timestamp;temperature;humidity
71155;DHT22;59375;53.216;5.728;2022-09-09T00:00:23;14.80;99.90
71155;DHT22;59375;53.216;5.728;2022-09-09T00:03:47;14.80;99.90
71155;DHT22;59375;53.216;5.728;2022-09-09T00:08:27;14.80;99.90
71155;DHT22;59375;53.216;5.728;2022-09-09T00:10:59;14.90;99.90
71155;DHT22;59375;53.216;5.728;2022-09-09T00:13:50;14.90;99.90
71155;DHT22;59375;53.216;5.728;2022-09-09T00:16:20;14.90;99.90
71155;DHT22;59375;53.216;5.728;2022-09-09T00:21:17;15.00;99.90
71155;DHT22;59375;53.216;5.728;2022-09-09T00:24:11;15.00;99.90
71155;DHT22;59375;53.216;5.728;2022-09-09T00:26:42;15.00;99.90
71155;DHT22;59375;53.216;5.728;2022-09-09T00:29:21;15.00;99.90
71155;DHT22;59375;53.216;5.728;2022-09-09T00:31:49;15.00;99.90
71155;DHT22;59375;53.216;5.728;2022-09-09T00:34:22;15.00;99.90
71155;DHT22;59375;53.216;5.728;2022-09-09T00:36:50;15.00;99.90
71155;DHT22;59375;53.216;5.728;2022-09-09T00:39:32;15.00;99.90
71155;DHT22;59375;53.216;5.728;2022-09-09T00:42:14;14.90;99.90
71155;DHT22;59375;53.216;5.728;2022-09-09T00:58:30;14.80;99.90
71155;DHT22;59375;53.216;5.728;2022-09-09T01:01:03;14.80;99.90
71155;DHT22;59375;53.216;5.728;2022-09-09T01:03:56;14.80;99.90
71155;DHT22;59375;53.216;5.728;2022-09-09T01:06:37;14.70;99.90
71155;DHT22;59375;53.216;5.728;2022-09-09T01:09:29;14.60;99.90
71155;DHT22;59375;53.216;5.728;2022-09-09T01:12:09;14.60;99.90
71155;DHT22;59375;53.216;5.728;2022-09-09T01:22:28;14.60;99.90
71155;DHT22;59375;53.216;5.728;2022-09-09T01:27:36;14.60;99.90
71155;DHT22;59375;53.216;5.728;2022-09-09T01:30:08;14.60;99.90
71155;DHT22;59375;53.216;5.728;2022-09-09T01:32:43;14.60;99.90
71155;DHT22;59375;53.216;5.728;2022-09-09T01:35:35;14.60;99.90
71155;DHT22;59375;53.216;5.728;2022-09-09T01:38:03;14.60;99.90
71155;DHT22;59375;53.216;5.728;2022-09-09T01:40:29;14.60;99.90
71155;DHT22;59375;53.216;5.728;2022-09-09T01:42:55;14.60;99.90
71155;DHT22;59375;53.216;5.728;2022-09-09T01:45:21;14.60;99.90
71155;DHT22;59375;53.216;5.728;2022-09-09T01:47:47;14.60;99.90
71155;DHT22;59375;53.216;5.728;2022-09-09T01:50:15;14.60;99.90
71155;DHT22;59375;53.216;5.728;2022-09-09T01:52:42;14.60;99.90
71155;DHT22;59375;53.216;5.728;2022-09-09T01:55:12;14.50;99.90
71155;DHT22;59375;53.216;5.728;2022-09-09T01:57:58;14.50;99.90
71155;DHT22;59375;53.216;5.728;2022-09-09T02:00:28;14.50;99.90
71155;DHT22;59375;53.216;5.728;2022-09-09T02:03:05;14.50;99.90
71155;DHT22;59375;53.216;5.728;2022-09-09T02:05:40;14.50;99.90
71155;DHT22;59375;53.216;5.728;2022-09-09T02:08:07;14.60;99.90
71155;DHT22;59375;53.216;5.728;2022-09-09T02:10:44;14.60;99.90
71155;DHT22;59375;53.216;5.728;2022-09-09T02:13:13;14.60;99.90
71155;DHT22;59375;53.216;5.728;2022-09-09T02:16:03;14.60;99.90
71155;DHT22;59375;53.216;5.728;2022-09-09T02:18:56;14.60;99.90
71155;DHT22;59375;53.216;5.728;2022-09-09T02:21:23;14.60;99.90
71155;DHT22;59375;53.216;5.728;2022-09-09T02:23:50;14.60;99.90
71155;DHT22;59375;53.216;5.728;2022-09-09T02:26:19;14.60;99.90
71155;DHT22;59375;53.216;5.728;2022-09-09T02:28:48;14.60;99.90
71155;DHT22;59375;53.216;5.728;2022-09-09T02:31:18;14.60;99.90
71155;DHT22;59375;53.216;5.728;2022-09-09T02:33:48;14.60;99.90
71155;DHT22;59375;53.216;5.728;2022-09-09T02:36:16;14.60;99.90
71155;DHT22;59375;53.216;5.728;2022-09-09T02:38:46;14.60;99.90
71155;DHT22;59375;53.216;5.728;2022-09-09T02:41:18;14.60;99.90
71155;DHT22;59375;53.216;5.728;2022-09-09T02:43:45;14.60;99.90
71155;DHT22;59375;53.216;5.728;2022-09-09T02:46:27;14.60;99.90
71155;DHT22;59375;53.216;5.728;2022-09-09T02:49:19;14.60;99.90
71155;DHT22;59375;53.216;5.728;2022-09-09T02:52:07;14.60;99.90
71155;DHT22;59375;53.216;5.728;2022-09-09T02:54:35;14.60;99.90
71155;DHT22;59375;53.216;5.728;2022-09-09T02:57:08;14.60;99.90
71155;DHT22;59375;53.216;5.728;2022-09-09T02:59:36;14.60;99.90
71155;DHT22;59375;53.216;5.728;2022-09-09T03:02:02;14.60;99.90
71155;DHT22;59375;53.216;5.728;2022-09-09T03:04:28;14.50;99.90
71155;DHT22;59375;53.216;5.728;2022-09-09T03:06:54;14.50;99.90
71155;DHT22;59375;53.216;5.728;2022-09-09T03:09:19;14.50;99.90
71155;DHT22;59375;53.216;5.728;2022-09-09T03:11:45;14.50;99.90
71155;DHT22;59375;53.216;5.728;2022-09-09T03:14:10;14.50;99.90
71155;DHT22;59375;53.216;5.728;2022-09-09T03:16:36;14.50;99.90
71155;DHT22;59375;53.216;5.728;2022-09-09T03:19:02;14.50;99.90
71155;DHT22;59375;53.216;5.728;2022-09-09T03:21:28;14.50;99.90
71155;DHT22;59375;53.216;5.728;2022-09-09T03:23:53;14.50;99.90
71155;DHT22;59375;53.216;5.728;2022-09-09T03:26:19;14.40;99.90
71155;DHT22;59375;53.216;5.728;2022-09-09T03:28:45;14.40;99.90
71155;DHT22;59375;53.216;5.728;2022-09-09T03:31:11;14.40;99.90
71155;DHT22;59375;53.216;5.728;2022-09-09T03:33:37;14.50;99.90
71155;DHT22;59375;53.216;5.728;2022-09-09T03:36:04;14.50;99.90
71155;DHT22;59375;53.216;5.728;2022-09-09T03:38:29;14.50;99.90
71155;DHT22;59375;53.216;5.728;2022-09-09T03:40:56;14.50;99.90
71155;DHT22;59375;53.216;5.728;2022-09-09T03:43:26;14.60;99.90
71155;DHT22;59375;53.216;5.728;2022-09-09T03:45:52;14.60;99.90
71155;DHT22;59375;53.216;5.728;2022-09-09T03:48:18;14.60;99.90
71155;DHT22;59375;53.216;5.728;2022-09-09T03:50:48;14.60;99.90
71155;DHT22;59375;53.216;5.728;2022-09-09T03:53:15;14.60;99.90
71155;DHT22;59375;53.216;5.728;2022-09-09T03:55:45;14.60;99.90
71155;DHT22;59375;53.216;5.728;2022-09-09T03:58:12;14.60;99.90
71155;DHT22;59375;53.216;5.728;2022-09-09T04:00:38;14.60;99.90
71155;DHT22;59375;53.216;5.728;2022-09-09T04:03:11;14.60;99.90
71155;DHT22;59375;53.216;5.728;2022-09-09T04:05:38;14.50;99.90
71155;DHT22;59375;53.216;5.728;2022-09-09T04:08:06;14.50;99.90
71155;DHT22;59375;53.216;5.728;2022-09-09T04:10:32;14.50;99.90
71155;DHT22;59375;53.216;5.728;2022-09-09T04:12:58;14.50;99.90
71155;DHT22;59375;53.216;5.728;2022-09-09T04:15:24;14.50;99.90
71155;DHT22;59375;53.216;5.728;2022-09-09T04:17:50;14.50;99.90
71155;DHT22;59375;53.216;5.728;2022-09-09T04:20:16;14.50;99.90
71155;DHT22;59375;53.216;5.728;2022-09-09T04:22:41;14.50;99.90
71155;DHT22;59375;53.216;5.728;2022-09-09T04:25:07;14.40;99.90
71155;DHT22;59375;53.216;5.728;2022-09-09T04:27:33;14.40;99.90
71155;DHT22;59375;53.216;5.728;2022-09-09T04:29:59;14.40;99.90
71155;DHT22;59375;53.216;5.728;2022-09-09T04:32:24;14.50;99.90
71155;DHT22;59375;53.216;5.728;2022-09-09T04:34:52;14.40;99.90
71155;DHT22;59375;53.216;5.728;2022-09-09T04:37:17;14.40;99.90
71155;DHT22;59375;53.216;5.728;2022-09-09T04:39:43;14.40;99.90
71155;DHT22;59375;53.216;5.728;2022-09-09T04:42:08;14.40;99.90
71155;DHT22;59375;53.216;5.728;2022-09-09T04:44:34;14.40;99.90
71155;DHT22;59375;53.216;5.728;2022-09-09T04:46:59;14.40;99.90
71155;DHT22;59375;53.216;5.728;2022-09-09T04:49:25;14.40;99.90
71155;DHT22;59375;53.216;5.728;2022-09-09T04:51:51;14.40;99.90
71155;DHT22;59375;53.216;5.728;2022-09-09T04:54:17;14.40;99.90
71155;DHT22;59375;53.216;5.728;2022-09-09T04:56:42;14.40;99.90
71155;DHT22;59375;53.216;5.728;2022-09-09T04:59:08;14.40;99.90
71155;DHT22;59375;53.216;5.728;2022-09-09T05:01:35;14.40;99.90
71155;DHT22;59375;53.216;5.728;2022-09-09T05:04:01;14.40;99.90
71155;DHT22;59375;53.216;5.728;2022-09-09T05:06:28;14.40;99.90
71155;DHT22;59375;53.216;5.728;2022-09-09T05:08:56;14.40;99.90
71155;DHT22;59375;53.216;5.728;2022-09-09T05:11:26;14.40;99.90
71155;DHT22;59375;53.216;5.728;2022-09-09T05:13:52;14.40;99.90
71155;DHT22;59375;53.216;5.728;2022-09-09T05:16:19;14.40;99.90
71155;DHT22;59375;53.216;5.728;2022-09-09T05:18:45;14.40;99.90
71155;DHT22;59375;53.216;5.728;2022-09-09T05:21:16;14.40;99.90
71155;DHT22;59375;53.216;5.728;2022-09-09T05:23:42;14.40;99.90
71155;DHT22;59375;53.216;5.728;2022-09-09T05:26:12;14.40;99.90
71155;DHT22;59375;53.216;5.728;2022-09-09T05:28:39;14.40;99.90
71155;DHT22;59375;53.216;5.728;2022-09-09T05:31:07;14.40;99.90
71155;DHT22;59375;53.216;5.728;2022-09-09T05:33:38;14.40;99.90
71155;DHT22;59375;53.216;5.728;2022-09-09T05:36:07;14.40;99.90
71155;DHT22;59375;53.216;5.728;2022-09-09T05:38:34;14.40;99.90
71155;DHT22;59375;53.216;5.728;2022-09-09T05:41:01;14.40;99.90
71155;DHT22;59375;53.216;5.728;2022-09-09T05:43:28;14.40;99.90
71155;DHT22;59375;53.216;5.728;2022-09-09T05:48:31;14.50;99.90
71155;DHT22;59375;53.216;5.728;2022-09-09T05:50:57;14.50;99.90
71155;DHT22;59375;53.216;5.728;2022-09-09T05:53:23;14.60;99.90
71155;DHT22;59375;53.216;5.728;2022-09-09T05:55:49;14.60;99.90
71155;DHT22;59375;53.216;5.728;2022-09-09T05:58:14;14.60;99.90
71155;DHT22;59375;53.216;5.728;2022-09-09T06:00:42;14.60;99.90
71155;DHT22;59375;53.216;5.728;2022-09-09T06:03:11;14.60;99.90
71155;DHT22;59375;53.216;5.728;2022-09-09T06:05:36;14.60;99.90
71155;DHT22;59375;53.216;5.728;2022-09-09T06:08:03;14.70;99.90
71155;DHT22;59375;53.216;5.728;2022-09-09T06:10:28;14.70;99.90
71155;DHT22;59375;53.216;5.728;2022-09-09T06:12:54;14.80;99.90
71155;DHT22;59375;53.216;5.728;2022-09-09T06:15:19;14.80;99.90
71155;DHT22;59375;53.216;5.728;2022-09-09T06:17:45;14.80;99.90
71155;DHT22;59375;53.216;5.728;2022-09-09T06:20:11;14.90;99.90
71155;DHT22;59375;53.216;5.728;2022-09-09T06:22:39;14.90;99.90
71155;DHT22;59375;53.216;5.728;2022-09-09T06:25:07;15.00;99.90
71155;DHT22;59375;53.216;5.728;2022-09-09T06:27:33;15.00;99.90
71155;DHT22;59375;53.216;5.728;2022-09-09T06:29:58;15.00;99.90
71155;DHT22;59375;53.216;5.728;2022-09-09T06:32:24;15.00;99.90
71155;DHT22;59375;53.216;5.728;2022-09-09T06:34:50;15.10;99.90
71155;DHT22;59375;53.216;5.728;2022-09-09T06:37:15;15.10;99.90
71155;DHT22;59375;53.216;5.728;2022-09-09T06:39:41;15.10;99.90
71155;DHT22;59375;53.216;5.728;2022-09-09T06:42:06;15.10;99.90
71155;DHT22;59375;53.216;5.728;2022-09-09T06:44:34;15.10;99.90
71155;DHT22;59375;53.216;5.728;2022-09-09T06:46:59;15.20;99.90
71155;DHT22;59375;53.216;5.728;2022-09-09T06:49:25;15.20;99.90
71155;DHT22;59375;53.216;5.728;2022-09-09T06:51:50;15.20;99.90
71155;DHT22;59375;53.216;5.728;2022-09-09T06:54:17;15.20;99.90
71155;DHT22;59375;53.216;5.728;2022-09-09T06:56:43;15.20;99.90
71155;DHT22;59375;53.216;5.728;2022-09-09T06:59:11;15.20;99.90
71155;DHT22;59375;53.216;5.728;2022-09-09T07:01:42;15.30;99.90
71155;DHT22;59375;53.216;5.728;2022-09-09T07:04:09;15.30;99.90
71155;DHT22;59375;53.216;5.728;2022-09-09T07:06:39;15.30;99.90
71155;DHT22;59375;53.216;5.728;2022-09-09T07:09:08;15.30;99.90
71155;DHT22;59375;53.216;5.728;2022-09-09T07:11:38;15.30;99.90
71155;DHT22;59375;53.216;5.728;2022-09-09T07:14:04;15.30;99.90
71155;DHT22;59375;53.216;5.728;2022-09-09T07:16:29;15.30;99.90
71155;DHT22;59375;53.216;5.728;2022-09-09T07:18:56;15.40;99.90
71155;DHT22;59375;53.216;5.728;2022-09-09T07:21:24;15.40;99.90
71155;DHT22;59375;53.216;5.728;2022-09-09T07:23:51;15.50;99.90
71155;DHT22;59375;53.216;5.728;2022-09-09T07:26:19;15.70;99.90
71155;DHT22;59375;53.216;5.728;2022-09-09T07:28:46;16.00;99.90
71155;DHT22;59375;53.216;5.728;2022-09-09T07:31:20;16.40;99.90
71155;DHT22;59375;53.216;5.728;2022-09-09T07:33:46;17.00;99.90
71155;DHT22;59375;53.216;5.728;2022-09-09T07:36:17;17.40;99.90
71155;DHT22;59375;53.216;5.728;2022-09-09T07:38:48;17.30;99.90
71155;DHT22;59375;53.216;5.728;2022-09-09T07:41:20;17.20;99.90
71155;DHT22;59375;53.216;5.728;2022-09-09T07:43:47;17.10;99.90
71155;DHT22;59375;53.216;5.728;2022-09-09T07:46:14;17.20;99.90
71155;DHT22;59375;53.216;5.728;2022-09-09T07:48:45;17.20;99.90
71155;DHT22;59375;53.216;5.728;2022-09-09T07:51:14;17.50;99.90
71155;DHT22;59375;53.216;5.728;2022-09-09T07:53:44;17.80;99.90
71155;DHT22;59375;53.216;5.728;2022-09-09T07:56:13;18.00;99.90
71155;DHT22;59375;53.216;5.728;2022-09-09T07:58:40;17.70;99.90
71155;DHT22;59375;53.216;5.728;2022-09-09T08:01:10;17.50;99.90
71155;DHT22;59375;53.216;5.728;2022-09-09T08:03:37;17.50;99.90
71155;DHT22;59375;53.216;5.728;2022-09-09T08:06:04;18.00;99.90
71155;DHT22;59375;53.216;5.728;2022-09-09T08:08:30;18.10;99.90
71155;DHT22;59375;53.216;5.728;2022-09-09T08:11:08;18.10;99.90
71155;DHT22;59375;53.216;5.728;2022-09-09T08:13:35;18.10;99.90
71155;DHT22;59375;53.216;5.728;2022-09-09T08:16:12;18.10;99.90
71155;DHT22;59375;53.216;5.728;2022-09-09T08:18:38;18.10;99.90
71155;DHT22;59375;53.216;5.728;2022-09-09T08:21:13;18.20;99.90
71155;DHT22;59375;53.216;5.728;2022-09-09T08:23:40;18.30;99.90
71155;DHT22;59375;53.216;5.728;2022-09-09T08:26:12;18.20;99.90
71155;DHT22;59375;53.216;5.728;2022-09-09T08:28:39;18.00;99.90
71155;DHT22;59375;53.216;5.728;2022-09-09T08:31:14;18.00;99.90
71155;DHT22;59375;53.216;5.728;2022-09-09T08:33:40;18.00;99.90
71155;DHT22;59375;53.216;5.728;2022-09-09T08:36:09;18.00;99.90
71155;DHT22;59375;53.216;5.728;2022-09-09T08:38:35;18.00;99.90
71155;DHT22;59375;53.216;5.728;2022-09-09T08:50:16;18.20;99.90
71155;DHT22;59375;53.216;5.728;2022-09-09T08:57:55;18.80;99.90
71155;DHT22;59375;53.216;5.728;2022-09-09T09:00:21;18.70;99.90
71155;DHT22;59375;53.216;5.728;2022-09-09T09:06:01;18.40;99.90
71155;DHT22;59375;53.216;5.728;2022-09-09T09:08:44;18.40;99.90
71155;DHT22;59375;53.216;5.728;2022-09-09T09:11:13;18.30;99.90
71155;DHT22;59375;53.216;5.728;2022-09-09T09:18:49;18.30;99.90
71155;DHT22;59375;53.216;5.728;2022-09-09T09:21:32;18.20;99.90
71155;DHT22;59375;53.216;5.728;2022-09-09T09:24:00;18.20;99.90
71155;DHT22;59375;53.216;5.728;2022-09-09T09:26:35;18.10;99.90
71155;DHT22;59375;53.216;5.728;2022-09-09T09:29:17;18.10;99.90
71155;DHT22;59375;53.216;5.728;2022-09-09T09:31:47;18.10;99.90
71155;DHT22;59375;53.216;5.728;2022-09-09T09:34:14;18.20;99.90
71155;DHT22;59375;53.216;5.728;2022-09-09T09:36:46;18.20;99.90
71155;DHT22;59375;53.216;5.728;2022-09-09T09:39:31;18.20;99.90
71155;DHT22;59375;53.216;5.728;2022-09-09T09:42:10;18.20;99.90
71155;DHT22;59375;53.216;5.728;2022-09-09T09:44:40;18.20;99.90
71155;DHT22;59375;53.216;5.728;2022-09-09T09:47:16;18.20;99.90
71155;DHT22;59375;53.216;5.728;2022-09-09T09:49:55;18.20;99.90
71155;DHT22;59375;53.216;5.728;2022-09-09T09:52:23;18.30;99.90
71155;DHT22;59375;53.216;5.728;2022-09-09T09:54:50;18.40;99.90
71155;DHT22;59375;53.216;5.728;2022-09-09T09:57:17;18.40;99.90
71155;DHT22;59375;53.216;5.728;2022-09-09T09:59:43;18.50;99.90
71155;DHT22;59375;53.216;5.728;2022-09-09T10:02:18;18.50;99.90
71155;DHT22;59375;53.216;5.728;2022-09-09T10:04:45;18.50;99.90
71155;DHT22;59375;53.216;5.728;2022-09-09T10:07:19;18.60;99.90
71155;DHT22;59375;53.216;5.728;2022-09-09T10:09:55;18.70;99.90
71155;DHT22;59375;53.216;5.728;2022-09-09T10:12:46;18.80;99.90
71155;DHT22;59375;53.216;5.728;2022-09-09T10:15:22;18.90;99.90
71155;DHT22;59375;53.216;5.728;2022-09-09T10:23:58;19.30;99.90
71155;DHT22;59375;53.216;5.728;2022-09-09T10:29:22;19.50;99.90
71155;DHT22;59375;53.216;5.728;2022-09-09T10:40:33;19.50;99.90
71155;DHT22;59375;53.216;5.728;2022-09-09T10:46:02;20.00;99.90
71155;DHT22;59375;53.216;5.728;2022-09-09T10:51:48;20.30;99.90
71155;DHT22;59375;53.216;5.728;2022-09-09T10:54:42;20.90;99.90
71155;DHT22;59375;53.216;5.728;2022-09-09T10:57:16;21.90;99.90
71155;DHT22;59375;53.216;5.728;2022-09-09T10:59:50;22.40;99.90
71155;DHT22;59375;53.216;5.728;2022-09-09T11:02:27;22.40;99.90
71155;DHT22;59375;53.216;5.728;2022-09-09T11:04:57;22.20;99.00
71155;DHT22;59375;53.216;5.728;2022-09-09T11:07:30;22.20;99.70
71155;DHT22;59375;53.216;5.728;2022-09-09T11:10:30;22.20;99.20
71155;DHT22;59375;53.216;5.728;2022-09-09T11:12:56;21.90;99.40
71155;DHT22;59375;53.216;5.728;2022-09-09T11:15:31;21.50;99.80
71155;DHT22;59375;53.216;5.728;2022-09-09T11:18:01;21.50;99.90
71155;DHT22;59375;53.216;5.728;2022-09-09T11:20:29;21.30;99.90
71155;DHT22;59375;53.216;5.728;2022-09-09T11:23:09;20.90;99.90
71155;DHT22;59375;53.216;5.728;2022-09-09T11:25:40;20.60;99.90
71155;DHT22;59375;53.216;5.728;2022-09-09T11:31:09;20.00;99.90
71155;DHT22;59375;53.216;5.728;2022-09-09T11:34:08;19.80;99.90
71155;DHT22;59375;53.216;5.728;2022-09-09T11:42:06;20.60;99.90
71155;DHT22;59375;53.216;5.728;2022-09-09T11:44:32;21.20;99.60
71155;DHT22;59375;53.216;5.728;2022-09-09T11:46:58;21.50;99.90
71155;DHT22;59375;53.216;5.728;2022-09-09T11:49:41;22.00;99.70
71155;DHT22;59375;53.216;5.728;2022-09-09T11:52:22;22.80;98.20
71155;DHT22;59375;53.216;5.728;2022-09-09T11:54:49;23.70;98.00
71155;DHT22;59375;53.216;5.728;2022-09-09T11:57:35;24.00;97.10
71155;DHT22;59375;53.216;5.728;2022-09-09T12:00:03;24.40;96.00
71155;DHT22;59375;53.216;5.728;2022-09-09T12:02:29;24.80;96.10
71155;DHT22;59375;53.216;5.728;2022-09-09T12:05:08;24.70;95.20
71155;DHT22;59375;53.216;5.728;2022-09-09T12:07:40;24.00;95.10
71155;DHT22;59375;53.216;5.728;2022-09-09T12:12:38;22.70;96.90
71155;DHT22;59375;53.216;5.728;2022-09-09T12:17:52;21.70;98.00
71155;DHT22;59375;53.216;5.728;2022-09-09T12:20:34;21.40;98.70
71155;DHT22;59375;53.216;5.728;2022-09-09T12:24:08;21.10;99.10
71155;DHT22;59375;53.216;5.728;2022-09-09T12:36:37;20.70;99.90
71155;DHT22;59375;53.216;5.728;2022-09-09T12:39:28;20.80;99.90
71155;DHT22;59375;53.216;5.728;2022-09-09T12:41:55;20.70;99.90
71155;DHT22;59375;53.216;5.728;2022-09-09T12:44:24;20.80;99.90
71155;DHT22;59375;53.216;5.728;2022-09-09T12:46:51;20.90;99.90
71155;DHT22;59375;53.216;5.728;2022-09-09T12:51:52;21.00;99.90
71155;DHT22;59375;53.216;5.728;2022-09-09T12:54:19;21.00;99.90
71155;DHT22;59375;53.216;5.728;2022-09-09T12:56:48;21.10;99.90
71155;DHT22;59375;53.216;5.728;2022-09-09T12:59:35;21.30;99.90
71155;DHT22;59375;53.216;5.728;2022-09-09T13:02:01;21.60;99.80
71155;DHT22;59375;53.216;5.728;2022-09-09T13:04:27;21.70;99.60
71155;DHT22;59375;53.216;5.728;2022-09-09T13:06:53;22.30;99.30
71155;DHT22;59375;53.216;5.728;2022-09-09T13:09:19;22.60;98.70
71155;DHT22;59375;53.216;5.728;2022-09-09T13:11:51;22.30;98.30
71155;DHT22;59375;53.216;5.728;2022-09-09T13:14:30;21.90;98.30
71155;DHT22;59375;53.216;5.728;2022-09-09T13:16:59;21.50;98.70
71155;DHT22;59375;53.216;5.728;2022-09-09T13:19:25;21.20;99.40
71155;DHT22;59375;53.216;5.728;2022-09-09T13:21:54;20.90;99.80
71155;DHT22;59375;53.216;5.728;2022-09-09T13:24:32;20.70;99.90
71155;DHT22;59375;53.216;5.728;2022-09-09T13:27:03;20.60;99.90
71155;DHT22;59375;53.216;5.728;2022-09-09T13:29:31;20.50;99.90
71155;DHT22;59375;53.216;5.728;2022-09-09T13:32:12;20.50;99.90
71155;DHT22;59375;53.216;5.728;2022-09-09T13:34:54;20.60;99.90
71155;DHT22;59375;53.216;5.728;2022-09-09T13:37:35;20.70;99.90
71155;DHT22;59375;53.216;5.728;2022-09-09T13:40:02;20.50;99.90
71155;DHT22;59375;53.216;5.728;2022-09-09T13:42:33;20.40;99.90
71155;DHT22;59375;53.216;5.728;2022-09-09T13:45:00;20.30;99.90
71155;DHT22;59375;53.216;5.728;2022-09-09T13:47:33;20.20;99.90
71155;DHT22;59375;53.216;5.728;2022-09-09T13:50:17;20.20;99.90
71155;DHT22;59375;53.216;5.728;2022-09-09T13:52:44;20.30;99.90
71155;DHT22;59375;53.216;5.728;2022-09-09T13:55:09;20.20;99.90
71155;DHT22;59375;53.216;5.728;2022-09-09T13:57:35;20.10;99.90
71155;DHT22;59375;53.216;5.728;2022-09-09T14:00:01;20.30;99.90
71155;DHT22;59375;53.216;5.728;2022-09-09T14:02:26;20.70;99.90
71155;DHT22;59375;53.216;5.728;2022-09-09T14:04:52;21.10;99.90
71155;DHT22;59375;53.216;5.728;2022-09-09T14:07:21;21.40;99.90
71155;DHT22;59375;53.216;5.728;2022-09-09T14:09:46;21.40;99.90
71155;DHT22;59375;53.216;5.728;2022-09-09T14:12:16;21.40;99.90
71155;DHT22;59375;53.216;5.728;2022-09-09T14:14:42;21.20;99.90
71155;DHT22;59375;53.216;5.728;2022-09-09T14:17:08;21.50;99.90
71155;DHT22;59375;53.216;5.728;2022-09-09T14:19:34;21.50;99.90
71155;DHT22;59375;53.216;5.728;2022-09-09T14:22:00;21.40;99.90
71155;DHT22;59375;53.216;5.728;2022-09-09T14:24:26;21.40;99.90
71155;DHT22;59375;53.216;5.728;2022-09-09T14:26:53;21.50;99.90
71155;DHT22;59375;53.216;5.728;2022-09-09T14:29:18;21.50;99.90
71155;DHT22;59375;53.216;5.728;2022-09-09T14:31:44;21.50;99.90
71155;DHT22;59375;53.216;5.728;2022-09-09T14:34:10;21.60;99.90
71155;DHT22;59375;53.216;5.728;2022-09-09T14:36:36;21.80;99.90
71155;DHT22;59375;53.216;5.728;2022-09-09T14:39:02;21.80;99.90
71155;DHT22;59375;53.216;5.728;2022-09-09T14:41:28;21.90;99.90
71155;DHT22;59375;53.216;5.728;2022-09-09T14:43:54;22.00;99.90
71155;DHT22;59375;53.216;5.728;2022-09-09T14:46:20;22.00;99.70
71155;DHT22;59375;53.216;5.728;2022-09-09T14:48:46;22.10;99.80
71155;DHT22;59375;53.216;5.728;2022-09-09T14:51:16;21.90;99.50
71155;DHT22;59375;53.216;5.728;2022-09-09T14:53:42;21.60;99.50
71155;DHT22;59375;53.216;5.728;2022-09-09T14:56:11;21.20;99.60
71155;DHT22;59375;53.216;5.728;2022-09-09T14:58:37;20.80;99.90
71155;DHT22;59375;53.216;5.728;2022-09-09T15:01:10;20.30;99.90
71155;DHT22;59375;53.216;5.728;2022-09-09T15:03:36;19.90;99.90
71155;DHT22;59375;53.216;5.728;2022-09-09T15:08:34;19.40;99.90
71155;DHT22;59375;53.216;5.728;2022-09-09T15:11:01;19.30;99.90
71155;DHT22;59375;53.216;5.728;2022-09-09T15:13:27;19.30;99.90
71155;DHT22;59375;53.216;5.728;2022-09-09T15:15:53;19.20;99.90
71155;DHT22;59375;53.216;5.728;2022-09-09T15:18:20;19.30;99.90
71155;DHT22;59375;53.216;5.728;2022-09-09T15:20:45;19.20;99.90
71155;DHT22;59375;53.216;5.728;2022-09-09T15:23:12;19.10;99.90
71155;DHT22;59375;53.216;5.728;2022-09-09T15:25:37;19.10;99.90
71155;DHT22;59375;53.216;5.728;2022-09-09T15:28:03;19.20;99.90
71155;DHT22;59375;53.216;5.728;2022-09-09T15:30:28;19.20;99.90
71155;DHT22;59375;53.216;5.728;2022-09-09T15:32:54;19.20;99.90
71155;DHT22;59375;53.216;5.728;2022-09-09T15:35:20;19.30;99.90
71155;DHT22;59375;53.216;5.728;2022-09-09T15:37:45;19.40;99.90
71155;DHT22;59375;53.216;5.728;2022-09-09T15:40:11;19.50;99.90
71155;DHT22;59375;53.216;5.728;2022-09-09T15:42:37;19.40;99.90
71155;DHT22;59375;53.216;5.728;2022-09-09T15:45:03;19.20;99.90
71155;DHT22;59375;53.216;5.728;2022-09-09T15:47:30;19.10;99.90
71155;DHT22;59375;53.216;5.728;2022-09-09T15:49:55;19.00;99.90
71155;DHT22;59375;53.216;5.728;2022-09-09T15:52:21;19.00;99.90
71155;DHT22;59375;53.216;5.728;2022-09-09T15:54:46;19.10;99.90
71155;DHT22;59375;53.216;5.728;2022-09-09T15:57:14;19.10;99.90
71155;DHT22;59375;53.216;5.728;2022-09-09T15:59:40;19.20;99.90
71155;DHT22;59375;53.216;5.728;2022-09-09T16:02:05;19.10;99.90
71155;DHT22;59375;53.216;5.728;2022-09-09T16:04:31;19.10;99.90
71155;DHT22;59375;53.216;5.728;2022-09-09T16:07:02;19.00;99.90
71155;DHT22;59375;53.216;5.728;2022-09-09T16:09:29;18.90;99.90
71155;DHT22;59375;53.216;5.728;2022-09-09T16:11:59;18.90;99.90
71155;DHT22;59375;53.216;5.728;2022-09-09T16:14:26;18.80;99.90
71155;DHT22;59375;53.216;5.728;2022-09-09T16:16:53;18.70;99.90
71155;DHT22;59375;53.216;5.728;2022-09-09T16:19:18;18.60;99.90
71155;DHT22;59375;53.216;5.728;2022-09-09T16:21:48;18.50;99.90
71155;DHT22;59375;53.216;5.728;2022-09-09T16:24:16;18.40;99.90
71155;DHT22;59375;53.216;5.728;2022-09-09T16:26:46;18.40;99.90
71155;DHT22;59375;53.216;5.728;2022-09-09T16:29:13;18.40;99.90
71155;DHT22;59375;53.216;5.728;2022-09-09T16:31:39;18.30;99.90
71155;DHT22;59375;53.216;5.728;2022-09-09T16:34:06;18.30;99.90
71155;DHT22;59375;53.216;5.728;2022-09-09T16:36:33;18.30;99.90
71155;DHT22;59375;53.216;5.728;2022-09-09T16:39:01;18.30;99.90
71155;DHT22;59375;53.216;5.728;2022-09-09T16:41:28;18.20;99.90
71155;DHT22;59375;53.216;5.728;2022-09-09T16:43:55;18.10;99.90
71155;DHT22;59375;53.216;5.728;2022-09-09T16:46:21;17.90;99.90
71155;DHT22;59375;53.216;5.728;2022-09-09T16:48:47;17.90;99.90
71155;DHT22;59375;53.216;5.728;2022-09-09T16:51:17;17.80;99.90
71155;DHT22;59375;53.216;5.728;2022-09-09T16:53:43;17.70;99.90
71155;DHT22;59375;53.216;5.728;2022-09-09T16:56:14;17.50;99.90
71155;DHT22;59375;53.216;5.728;2022-09-09T16:58:41;17.50;99.90
71155;DHT22;59375;53.216;5.728;2022-09-09T17:01:08;17.60;99.90
71155;DHT22;59375;53.216;5.728;2022-09-09T17:03:33;17.60;99.90
71155;DHT22;59375;53.216;5.728;2022-09-09T17:05:59;17.70;99.90
71155;DHT22;59375;53.216;5.728;2022-09-09T17:08:30;17.80;99.90
71155;DHT22;59375;53.216;5.728;2022-09-09T17:10:57;17.90;99.90
71155;DHT22;59375;53.216;5.728;2022-09-09T17:13:23;17.90;99.90
71155;DHT22;59375;53.216;5.728;2022-09-09T17:15:48;17.90;99.90
71155;DHT22;59375;53.216;5.728;2022-09-09T17:18:14;17.90;99.90
71155;DHT22;59375;53.216;5.728;2022-09-09T17:20:40;17.80;99.90
71155;DHT22;59375;53.216;5.728;2022-09-09T17:23:07;17.70;99.90
71155;DHT22;59375;53.216;5.728;2022-09-09T17:25:33;17.60;99.90
71155;DHT22;59375;53.216;5.728;2022-09-09T17:27:59;17.50;99.90
71155;DHT22;59375;53.216;5.728;2022-09-09T17:30:26;17.40;99.90
71155;DHT22;59375;53.216;5.728;2022-09-09T17:32:52;17.20;99.90